sensor_id;sensor_type;location;lat;lon;timestamp;P1;durP1;ratioP1;P2;durP2;ratioP2
2874;SDS011;1445;52.600;13.328;2023-07-20T00:00:25;0.80;;;0.80;;
2874;SDS011;1445;52.600;13.328;2023-07-20T00:02:51;1.15;;;1.05;;
2874;SDS011;1445;52.600;13.328;2023-07-20T00:05:16;5.32;;;1.95;;
2874;SDS011;1445;52.600;13.328;2023-07-20T00:07:49;1.98;;;1.45;;
2874;SDS011;1445;52.600;13.328;2023-07-20T00:10:17;0.90;;;0.90;;
2874;SDS011;1445;52.600;13.328;2023-07-20T00:12:42;1.25;;;1.15;;
2874;SDS011;1445;52.600;13.328;2023-07-20T00:15:12;1.73;;;1.40;;
2874;SDS011;1445;52.600;13.328;2023-07-20T00:17:38;4.22;;;1.45;;
2874;SDS011;1445;52.600;13.328;2023-07-20T00:20:05;0.93;;;0.88;;
2874;SDS011;1445;52.600;13.328;2023-07-20T00:22:31;1.70;;;1.23;;
2874;SDS011;1445;52.600;13.328;2023-07-20T00:24:56;1.10;;;1.10;;
2874;SDS011;1445;52.600;13.328;2023-07-20T00:27:22;0.90;;;0.88;;
2874;SDS011;1445;52.600;13.328;2023-07-20T00:29:47;2.00;;;1.40;;
2874;SDS011;1445;52.600;13.328;2023-07-20T00:32:12;2.60;;;1.60;;
2874;SDS011;1445;52.600;13.328;2023-07-20T00:34:38;4.20;;;1.48;;
2874;SDS011;1445;52.600;13.328;2023-07-20T00:37:03;1.77;;;1.30;;
2874;SDS011;1445;52.600;13.328;2023-07-20T00:39:29;1.17;;;1.08;;
2874;SDS011;1445;52.600;13.328;2023-07-20T00:41:54;0.68;;;0.68;;
2874;SDS011;1445;52.600;13.328;2023-07-20T00:44:20;1.92;;;1.20;;
2874;SDS011;1445;52.600;13.328;2023-07-20T00:46:45;1.17;;;1.08;;
2874;SDS011;1445;52.600;13.328;2023-07-20T00:49:11;2.05;;;1.85;;
2874;SDS011;1445;52.600;13.328;2023-07-20T00:51:37;1.63;;;1.13;;
2874;SDS011;1445;52.600;13.328;2023-07-20T00:54:02;0.98;;;0.98;;
2874;SDS011;1445;52.600;13.328;2023-07-20T00:56:28;1.63;;;1.52;;
2874;SDS011;1445;52.600;13.328;2023-07-20T00:58:53;2.15;;;1.42;;
2874;SDS011;1445;52.600;13.328;2023-07-20T01:01:18;1.45;;;1.35;;
2874;SDS011;1445;52.600;13.328;2023-07-20T01:03:44;2.10;;;1.80;;
2874;SDS011;1445;52.600;13.328;2023-07-20T01:06:11;1.55;;;1.30;;
2874;SDS011;1445;52.600;13.328;2023-07-20T01:08:49;2.22;;;1.75;;
2874;SDS011;1445;52.600;13.328;2023-07-20T01:14:23;0.90;;;0.90;;
2874;SDS011;1445;52.600;13.328;2023-07-20T01:16:50;1.05;;;1.02;;
2874;SDS011;1445;52.600;13.328;2023-07-20T01:19:17;1.73;;;1.63;;
2874;SDS011;1445;52.600;13.328;2023-07-20T01:27:25;2.08;;;1.92;;
2874;SDS011;1445;52.600;13.328;2023-07-20T01:33:08;1.48;;;1.38;;
2874;SDS011;1445;52.600;13.328;2023-07-20T01:35:36;1.35;;;1.25;;
2874;SDS011;1445;52.600;13.328;2023-07-20T01:38:03;1.67;;;1.50;;
2874;SDS011;1445;52.600;13.328;2023-07-20T01:40:29;1.30;;;1.20;;
2874;SDS011;1445;52.600;13.328;2023-07-20T01:42:54;2.97;;;1.77;;
2874;SDS011;1445;52.600;13.328;2023-07-20T01:45:20;1.13;;;1.05;;
2874;SDS011;1445;52.600;13.328;2023-07-20T01:47:45;3.63;;;2.03;;
2874;SDS011;1445;52.600;13.328;2023-07-20T01:50:11;2.03;;;1.85;;
2874;SDS011;1445;52.600;13.328;2023-07-20T01:52:36;1.40;;;1.30;;
2874;SDS011;1445;52.600;13.328;2023-07-20T01:55:02;2.53;;;1.88;;
2874;SDS011;1445;52.600;13.328;2023-07-20T01:57:27;1.67;;;1.58;;
2874;SDS011;1445;52.600;13.328;2023-07-20T01:59:53;2.95;;;1.75;;
2874;SDS011;1445;52.600;13.328;2023-07-20T02:02:18;2.22;;;2.03;;
2874;SDS011;1445;52.600;13.328;2023-07-20T02:04:45;1.55;;;1.27;;
2874;SDS011;1445;52.600;13.328;2023-07-20T02:07:11;2.25;;;1.27;;
2874;SDS011;1445;52.600;13.328;2023-07-20T02:09:36;2.45;;;1.13;;
2874;SDS011;1445;52.600;13.328;2023-07-20T02:12:02;2.45;;;1.95;;
2874;SDS011;1445;52.600;13.328;2023-07-20T02:14:27;4.32;;;2.05;;
2874;SDS011;1445;52.600;13.328;2023-07-20T02:16:52;1.85;;;1.75;;
2874;SDS011;1445;52.600;13.328;2023-07-20T02:19:24;2.90;;;2.45;;
2874;SDS011;1445;52.600;13.328;2023-07-20T02:21:51;6.25;;;2.00;;
2874;SDS011;1445;52.600;13.328;2023-07-20T02:24:16;3.75;;;2.38;;
2874;SDS011;1445;52.600;13.328;2023-07-20T02:26:41;2.70;;;1.67;;
2874;SDS011;1445;52.600;13.328;2023-07-20T02:29:07;2.65;;;2.00;;
2874;SDS011;1445;52.600;13.328;2023-07-20T02:31:33;1.73;;;1.42;;
2874;SDS011;1445;52.600;13.328;2023-07-20T02:33:58;2.83;;;1.85;;
2874;SDS011;1445;52.600;13.328;2023-07-20T02:36:24;3.03;;;2.38;;
2874;SDS011;1445;52.600;13.328;2023-07-20T02:38:49;2.58;;;2.17;;
2874;SDS011;1445;52.600;13.328;2023-07-20T02:41:14;2.53;;;1.85;;
2874;SDS011;1445;52.600;13.328;2023-07-20T02:43:40;2.63;;;2.42;;
2874;SDS011;1445;52.600;13.328;2023-07-20T02:46:05;2.42;;;2.22;;
2874;SDS011;1445;52.600;13.328;2023-07-20T02:48:30;2.55;;;2.08;;
2874;SDS011;1445;52.600;13.328;2023-07-20T02:50:56;3.33;;;2.17;;
2874;SDS011;1445;52.600;13.328;2023-07-20T02:53:21;2.67;;;2.47;;
2874;SDS011;1445;52.600;13.328;2023-07-20T02:55:47;4.20;;;2.40;;
2874;SDS011;1445;52.600;13.328;2023-07-20T02:58:12;4.78;;;3.08;;
2874;SDS011;1445;52.600;13.328;2023-07-20T03:00:38;2.60;;;2.40;;
2874;SDS011;1445;52.600;13.328;2023-07-20T03:03:03;2.67;;;1.85;;
2874;SDS011;1445;52.600;13.328;2023-07-20T03:05:28;2.72;;;2.53;;
2874;SDS011;1445;52.600;13.328;2023-07-20T03:07:55;3.53;;;2.53;;
2874;SDS011;1445;52.600;13.328;2023-07-20T03:10:21;4.82;;;3.50;;
2874;SDS011;1445;52.600;13.328;2023-07-20T03:12:46;3.17;;;2.90;;
2874;SDS011;1445;52.600;13.328;2023-07-20T03:15:11;2.83;;;2.33;;
2874;SDS011;1445;52.600;13.328;2023-07-20T03:17:37;2.70;;;2.50;;
2874;SDS011;1445;52.600;13.328;2023-07-20T03:20:02;3.22;;;2.88;;
2874;SDS011;1445;52.600;13.328;2023-07-20T03:22:28;2.42;;;2.20;;
2874;SDS011;1445;52.600;13.328;2023-07-20T03:24:53;5.28;;;2.58;;
2874;SDS011;1445;52.600;13.328;2023-07-20T03:27:19;2.08;;;1.75;;
2874;SDS011;1445;52.600;13.328;2023-07-20T03:29:44;3.25;;;2.33;;
2874;SDS011;1445;52.600;13.328;2023-07-20T03:32:10;4.43;;;3.30;;
2874;SDS011;1445;52.600;13.328;2023-07-20T03:34:36;2.55;;;2.20;;
2874;SDS011;1445;52.600;13.328;2023-07-20T03:37:01;2.20;;;1.95;;
2874;SDS011;1445;52.600;13.328;2023-07-20T03:39:30;3.08;;;2.42;;
2874;SDS011;1445;52.600;13.328;2023-07-20T03:41:55;4.53;;;2.83;;
2874;SDS011;1445;52.600;13.328;2023-07-20T03:44:20;5.45;;;2.60;;
2874;SDS011;1445;52.600;13.328;2023-07-20T03:46:46;3.97;;;3.08;;
2874;SDS011;1445;52.600;13.328;2023-07-20T03:49:11;6.07;;;2.60;;
2874;SDS011;1445;52.600;13.328;2023-07-20T03:51:37;3.50;;;2.60;;
2874;SDS011;1445;52.600;13.328;2023-07-20T03:54:02;2.28;;;2.10;;
2874;SDS011;1445;52.600;13.328;2023-07-20T03:56:28;2.03;;;1.85;;
2874;SDS011;1445;52.600;13.328;2023-07-20T03:58:53;2.22;;;1.95;;
2874;SDS011;1445;52.600;13.328;2023-07-20T04:01:19;6.00;;;2.55;;
2874;SDS011;1445;52.600;13.328;2023-07-20T04:03:44;2.65;;;2.38;;
2874;SDS011;1445;52.600;13.328;2023-07-20T04:06:09;2.95;;;2.17;;
2874;SDS011;1445;52.600;13.328;2023-07-20T04:08:35;4.35;;;2.90;;
2874;SDS011;1445;52.600;13.328;2023-07-20T04:11:02;2.63;;;2.42;;
2874;SDS011;1445;52.600;13.328;2023-07-20T04:13:27;3.95;;;2.42;;
2874;SDS011;1445;52.600;13.328;2023-07-20T04:15:53;3.22;;;2.10;;
2874;SDS011;1445;52.600;13.328;2023-07-20T04:18:19;1.85;;;1.70;;
2874;SDS011;1445;52.600;13.328;2023-07-20T04:20:45;1.63;;;1.52;;
2874;SDS011;1445;52.600;13.328;2023-07-20T04:23:10;1.67;;;1.55;;
2874;SDS011;1445;52.600;13.328;2023-07-20T04:25:35;2.33;;;2.13;;
2874;SDS011;1445;52.600;13.328;2023-07-20T04:28:04;1.75;;;1.65;;
2874;SDS011;1445;52.600;13.328;2023-07-20T04:30:33;2.38;;;1.88;;
2874;SDS011;1445;52.600;13.328;2023-07-20T04:32:59;2.78;;;2.15;;
2874;SDS011;1445;52.600;13.328;2023-07-20T04:38:16;7.63;;;2.10;;
2874;SDS011;1445;52.600;13.328;2023-07-20T04:40:46;1.73;;;1.40;;
2874;SDS011;1445;52.600;13.328;2023-07-20T04:43:16;2.50;;;1.73;;
2874;SDS011;1445;52.600;13.328;2023-07-20T04:45:42;2.65;;;1.90;;
2874;SDS011;1445;52.600;13.328;2023-07-20T04:48:11;2.72;;;2.10;;
2874;SDS011;1445;52.600;13.328;2023-07-20T04:50:43;3.65;;;1.65;;
2874;SDS011;1445;52.600;13.328;2023-07-20T04:53:11;14.82;;;3.50;;
2874;SDS011;1445;52.600;13.328;2023-07-20T04:55:37;3.40;;;2.58;;
2874;SDS011;1445;52.600;13.328;2023-07-20T04:58:05;1.80;;;1.60;;
2874;SDS011;1445;52.600;13.328;2023-07-20T05:00:32;2.33;;;1.92;;
2874;SDS011;1445;52.600;13.328;2023-07-20T05:02:58;3.45;;;2.63;;
2874;SDS011;1445;52.600;13.328;2023-07-20T05:05:23;5.07;;;1.85;;
2874;SDS011;1445;52.600;13.328;2023-07-20T05:07:49;2.13;;;2.03;;
2874;SDS011;1445;52.600;13.328;2023-07-20T05:10:14;2.25;;;2.05;;
2874;SDS011;1445;52.600;13.328;2023-07-20T05:12:39;3.17;;;2.85;;
2874;SDS011;1445;52.600;13.328;2023-07-20T05:15:05;1.92;;;1.73;;
2874;SDS011;1445;52.600;13.328;2023-07-20T05:17:31;3.13;;;1.88;;
2874;SDS011;1445;52.600;13.328;2023-07-20T05:19:56;2.58;;;1.67;;
2874;SDS011;1445;52.600;13.328;2023-07-20T05:22:21;3.65;;;3.00;;
2874;SDS011;1445;52.600;13.328;2023-07-20T05:24:48;5.13;;;2.58;;
2874;SDS011;1445;52.600;13.328;2023-07-20T05:27:13;2.33;;;1.88;;
2874;SDS011;1445;52.600;13.328;2023-07-20T05:29:43;2.42;;;2.15;;
2874;SDS011;1445;52.600;13.328;2023-07-20T05:32:09;2.38;;;1.55;;
2874;SDS011;1445;52.600;13.328;2023-07-20T05:34:34;1.67;;;1.58;;
2874;SDS011;1445;52.600;13.328;2023-07-20T05:37:00;2.15;;;1.88;;
2874;SDS011;1445;52.600;13.328;2023-07-20T05:39:25;3.80;;;2.60;;
2874;SDS011;1445;52.600;13.328;2023-07-20T05:41:51;1.55;;;1.45;;
2874;SDS011;1445;52.600;13.328;2023-07-20T05:44:16;3.60;;;1.67;;
2874;SDS011;1445;52.600;13.328;2023-07-20T05:46:41;1.55;;;1.45;;
2874;SDS011;1445;52.600;13.328;2023-07-20T05:49:07;1.42;;;1.33;;
2874;SDS011;1445;52.600;13.328;2023-07-20T05:51:32;1.83;;;1.35;;
2874;SDS011;1445;52.600;13.328;2023-07-20T05:53:58;1.98;;;1.63;;
2874;SDS011;1445;52.600;13.328;2023-07-20T05:56:23;4.43;;;1.50;;
2874;SDS011;1445;52.600;13.328;2023-07-20T05:58:48;1.67;;;1.58;;
2874;SDS011;1445;52.600;13.328;2023-07-20T06:01:14;2.30;;;2.05;;
2874;SDS011;1445;52.600;13.328;2023-07-20T06:03:39;1.30;;;1.20;;
2874;SDS011;1445;52.600;13.328;2023-07-20T06:06:04;1.45;;;1.33;;
2874;SDS011;1445;52.600;13.328;2023-07-20T06:08:31;1.98;;;1.13;;
2874;SDS011;1445;52.600;13.328;2023-07-20T06:10:56;2.08;;;1.58;;
2874;SDS011;1445;52.600;13.328;2023-07-20T06:13:22;1.60;;;1.10;;
2874;SDS011;1445;52.600;13.328;2023-07-20T06:15:48;1.35;;;0.95;;
2874;SDS011;1445;52.600;13.328;2023-07-20T06:18:13;1.63;;;1.20;;
2874;SDS011;1445;52.600;13.328;2023-07-20T06:20:39;1.02;;;0.95;;
2874;SDS011;1445;52.600;13.328;2023-07-20T06:23:04;1.17;;;1.08;;
2874;SDS011;1445;52.600;13.328;2023-07-20T06:25:30;1.85;;;0.80;;
2874;SDS011;1445;52.600;13.328;2023-07-20T06:27:56;1.65;;;1.13;;
2874;SDS011;1445;52.600;13.328;2023-07-20T06:30:21;1.95;;;1.30;;
2874;SDS011;1445;52.600;13.328;2023-07-20T06:32:47;0.95;;;0.93;;
2874;SDS011;1445;52.600;13.328;2023-07-20T06:35:13;1.38;;;1.27;;
2874;SDS011;1445;52.600;13.328;2023-07-20T06:37:39;2.90;;;1.13;;
2874;SDS011;1445;52.600;13.328;2023-07-20T06:40:04;0.80;;;0.60;;
2874;SDS011;1445;52.600;13.328;2023-07-20T06:42:31;1.15;;;1.05;;
2874;SDS011;1445;52.600;13.328;2023-07-20T06:44:57;2.00;;;0.95;;
2874;SDS011;1445;52.600;13.328;2023-07-20T06:47:22;1.00;;;0.90;;
2874;SDS011;1445;52.600;13.328;2023-07-20T06:49:48;1.20;;;1.00;;
2874;SDS011;1445;52.600;13.328;2023-07-20T06:52:14;1.10;;;1.00;;
2874;SDS011;1445;52.600;13.328;2023-07-20T06:54:40;6.18;;;1.42;;
2874;SDS011;1445;52.600;13.328;2023-07-20T06:57:05;0.65;;;0.52;;
2874;SDS011;1445;52.600;13.328;2023-07-20T06:59:30;0.70;;;0.70;;
2874;SDS011;1445;52.600;13.328;2023-07-20T07:01:56;1.60;;;1.50;;
2874;SDS011;1445;52.600;13.328;2023-07-20T07:04:21;0.50;;;0.50;;
2874;SDS011;1445;52.600;13.328;2023-07-20T07:06:47;0.95;;;0.93;;
2874;SDS011;1445;52.600;13.328;2023-07-20T07:09:13;0.65;;;0.65;;
2874;SDS011;1445;52.600;13.328;2023-07-20T07:11:39;0.85;;;0.85;;
2874;SDS011;1445;52.600;13.328;2023-07-20T07:14:04;0.63;;;0.63;;
2874;SDS011;1445;52.600;13.328;2023-07-20T07:16:30;0.40;;;0.40;;
2874;SDS011;1445;52.600;13.328;2023-07-20T07:18:55;0.68;;;0.68;;
2874;SDS011;1445;52.600;13.328;2023-07-20T07:21:20;0.93;;;0.70;;
2874;SDS011;1445;52.600;13.328;2023-07-20T07:23:46;1.17;;;0.75;;
2874;SDS011;1445;52.600;13.328;2023-07-20T07:26:12;0.70;;;0.60;;
2874;SDS011;1445;52.600;13.328;2023-07-20T07:28:38;1.55;;;0.80;;
2874;SDS011;1445;52.600;13.328;2023-07-20T07:31:06;2.35;;;1.02;;
2874;SDS011;1445;52.600;13.328;2023-07-20T07:33:32;2.88;;;1.35;;
2874;SDS011;1445;52.600;13.328;2023-07-20T07:35:58;0.50;;;0.50;;
2874;SDS011;1445;52.600;13.328;2023-07-20T07:38:23;0.85;;;0.60;;
2874;SDS011;1445;52.600;13.328;2023-07-20T07:40:49;8.02;;;1.10;;
2874;SDS011;1445;52.600;13.328;2023-07-20T07:43:14;0.40;;;0.40;;
2874;SDS011;1445;52.600;13.328;2023-07-20T07:45:39;0.50;;;0.50;;
2874;SDS011;1445;52.600;13.328;2023-07-20T07:48:06;1.48;;;0.77;;
2874;SDS011;1445;52.600;13.328;2023-07-20T07:50:32;0.47;;;0.47;;
2874;SDS011;1445;52.600;13.328;2023-07-20T07:52:58;1.35;;;0.73;;
2874;SDS011;1445;52.600;13.328;2023-07-20T07:55:24;0.63;;;0.63;;
2874;SDS011;1445;52.600;13.328;2023-07-20T07:57:51;0.32;;;0.30;;
2874;SDS011;1445;52.600;13.328;2023-07-20T08:00:17;0.60;;;0.52;;
2874;SDS011;1445;52.600;13.328;2023-07-20T08:02:44;0.40;;;0.40;;
2874;SDS011;1445;52.600;13.328;2023-07-20T08:05:10;0.73;;;0.55;;
2874;SDS011;1445;52.600;13.328;2023-07-20T08:07:36;0.30;;;0.30;;
2874;SDS011;1445;52.600;13.328;2023-07-20T08:10:02;0.40;;;0.40;;
2874;SDS011;1445;52.600;13.328;2023-07-20T08:12:28;0.50;;;0.50;;
2874;SDS011;1445;52.600;13.328;2023-07-20T08:14:53;0.40;;;0.35;;
2874;SDS011;1445;52.600;13.328;2023-07-20T08:17:18;0.68;;;0.60;;
2874;SDS011;1445;52.600;13.328;2023-07-20T08:19:45;0.20;;;0.20;;
2874;SDS011;1445;52.600;13.328;2023-07-20T08:22:11;0.40;;;0.40;;
2874;SDS011;1445;52.600;13.328;2023-07-20T08:24:40;0.40;;;0.40;;
2874;SDS011;1445;52.600;13.328;2023-07-20T08:27:09;0.40;;;0.40;;
2874;SDS011;1445;52.600;13.328;2023-07-20T08:29:35;0.20;;;0.20;;
2874;SDS011;1445;52.600;13.328;2023-07-20T08:32:01;0.20;;;0.20;;
2874;SDS011;1445;52.600;13.328;2023-07-20T08:34:27;0.40;;;0.40;;
2874;SDS011;1445;52.600;13.328;2023-07-20T08:36:53;1.48;;;0.55;;
2874;SDS011;1445;52.600;13.328;2023-07-20T08:39:18;0.25;;;0.25;;
2874;SDS011;1445;52.600;13.328;2023-07-20T08:41:43;0.30;;;0.30;;
2874;SDS011;1445;52.600;13.328;2023-07-20T08:44:10;0.38;;;0.38;;
2874;SDS011;1445;52.600;13.328;2023-07-20T08:46:36;0.20;;;0.20;;
2874;SDS011;1445;52.600;13.328;2023-07-20T08:49:03;0.25;;;0.25;;
2874;SDS011;1445;52.600;13.328;2023-07-20T08:51:30;0.57;;;0.50;;
2874;SDS011;1445;52.600;13.328;2023-07-20T08:53:56;0.70;;;0.55;;
2874;SDS011;1445;52.600;13.328;2023-07-20T08:56:21;0.45;;;0.45;;
2874;SDS011;1445;52.600;13.328;2023-07-20T08:58:51;0.30;;;0.30;;
2874;SDS011;1445;52.600;13.328;2023-07-20T09:01:20;0.25;;;0.25;;
2874;SDS011;1445;52.600;13.328;2023-07-20T09:03:47;0.25;;;0.25;;
2874;SDS011;1445;52.600;13.328;2023-07-20T09:06:13;0.30;;;0.30;;
2874;SDS011;1445;52.600;13.328;2023-07-20T09:08:39;0.20;;;0.20;;
2874;SDS011;1445;52.600;13.328;2023-07-20T09:11:05;0.25;;;0.25;;
2874;SDS011;1445;52.600;13.328;2023-07-20T09:13:32;0.30;;;0.30;;
2874;SDS011;1445;52.600;13.328;2023-07-20T09:15:58;0.20;;;0.20;;
2874;SDS011;1445;52.600;13.328;2023-07-20T09:18:29;0.30;;;0.30;;
2874;SDS011;1445;52.600;13.328;2023-07-20T09:21:03;0.20;;;0.20;;
2874;SDS011;1445;52.600;13.328;2023-07-20T09:23:33;0.40;;;0.40;;
2874;SDS011;1445;52.600;13.328;2023-07-20T09:26:00;0.40;;;0.40;;
2874;SDS011;1445;52.600;13.328;2023-07-20T09:28:26;0.30;;;0.30;;
2874;SDS011;1445;52.600;13.328;2023-07-20T09:30:52;0.32;;;0.32;;
2874;SDS011;1445;52.600;13.328;2023-07-20T09:33:22;0.20;;;0.20;;
2874;SDS011;1445;52.600;13.328;2023-07-20T09:35:48;0.28;;;0.28;;
2874;SDS011;1445;52.600;13.328;2023-07-20T09:38:14;0.80;;;0.38;;
2874;SDS011;1445;52.600;13.328;2023-07-20T09:40:40;1.00;;;0.77;;
2874;SDS011;1445;52.600;13.328;2023-07-20T09:43:07;3.80;;;0.50;;
2874;SDS011;1445;52.600;13.328;2023-07-20T09:45:34;0.40;;;0.40;;
2874;SDS011;1445;52.600;13.328;2023-07-20T09:48:07;0.30;;;0.30;;
2874;SDS011;1445;52.600;13.328;2023-07-20T09:50:40;1.55;;;0.57;;
2874;SDS011;1445;52.600;13.328;2023-07-20T09:53:07;0.30;;;0.30;;
2874;SDS011;1445;52.600;13.328;2023-07-20T09:55:38;0.15;;;0.15;;
2874;SDS011;1445;52.600;13.328;2023-07-20T09:58:05;0.95;;;0.60;;
2874;SDS011;1445;52.600;13.328;2023-07-20T10:00:32;0.30;;;0.30;;
2874;SDS011;1445;52.600;13.328;2023-07-20T10:02:59;0.25;;;0.25;;
2874;SDS011;1445;52.600;13.328;2023-07-20T10:05:28;0.30;;;0.30;;
2874;SDS011;1445;52.600;13.328;2023-07-20T10:08:01;0.20;;;0.20;;
2874;SDS011;1445;52.600;13.328;2023-07-20T10:10:29;0.32;;;0.32;;
2874;SDS011;1445;52.600;13.328;2023-07-20T10:12:57;0.38;;;0.30;;
2874;SDS011;1445;52.600;13.328;2023-07-20T10:15:29;0.20;;;0.20;;
2874;SDS011;1445;52.600;13.328;2023-07-20T10:18:11;0.20;;;0.20;;
2874;SDS011;1445;52.600;13.328;2023-07-20T10:20:40;0.30;;;0.30;;
2874;SDS011;1445;52.600;13.328;2023-07-20T10:23:08;0.30;;;0.30;;
2874;SDS011;1445;52.600;13.328;2023-07-20T10:25:35;0.40;;;0.40;;
2874;SDS011;1445;52.600;13.328;2023-07-20T10:28:05;0.40;;;0.40;;
2874;SDS011;1445;52.600;13.328;2023-07-20T10:30:34;0.45;;;0.45;;
2874;SDS011;1445;52.600;13.328;2023-07-20T10:33:01;0.80;;;0.30;;
2874;SDS011;1445;52.600;13.328;2023-07-20T10:35:28;0.88;;;0.88;;
2874;SDS011;1445;52.600;13.328;2023-07-20T10:38:00;0.40;;;0.40;;
2874;SDS011;1445;52.600;13.328;2023-07-20T10:41:12;0.30;;;0.30;;
2874;SDS011;1445;52.600;13.328;2023-07-20T10:43:21;0.30;;;0.30;;
2874;SDS011;1445;52.600;13.328;2023-07-20T10:45:53;0.20;;;0.20;;
2874;SDS011;1445;52.600;13.328;2023-07-20T10:48:22;0.45;;;0.30;;
2874;SDS011;1445;52.600;13.328;2023-07-20T10:53:39;0.20;;;0.20;;
2874;SDS011;1445;52.600;13.328;2023-07-20T10:56:11;0.20;;;0.20;;
2874;SDS011;1445;52.600;13.328;2023-07-20T10:58:38;0.60;;;0.35;;
2874;SDS011;1445;52.600;13.328;2023-07-20T11:01:05;0.20;;;0.20;;
2874;SDS011;1445;52.600;13.328;2023-07-20T11:03:38;0.20;;;0.20;;
2874;SDS011;1445;52.600;13.328;2023-07-20T11:06:50;0.30;;;0.30;;
2874;SDS011;1445;52.600;13.328;2023-07-20T11:11:44;0.20;;;0.20;;
2874;SDS011;1445;52.600;13.328;2023-07-20T11:14:22;0.20;;;0.20;;
2874;SDS011;1445;52.600;13.328;2023-07-20T11:16:48;0.45;;;0.45;;
2874;SDS011;1445;52.600;13.328;2023-07-20T11:19:19;0.20;;;0.20;;
2874;SDS011;1445;52.600;13.328;2023-07-20T11:21:58;0.10;;;0.10;;
2874;SDS011;1445;52.600;13.328;2023-07-20T11:24:24;0.30;;;0.30;;
2874;SDS011;1445;52.600;13.328;2023-07-20T11:26:50;0.20;;;0.20;;
2874;SDS011;1445;52.600;13.328;2023-07-20T11:29:17;0.20;;;0.20;;
2874;SDS011;1445;52.600;13.328;2023-07-20T11:31:44;0.10;;;0.10;;
2874;SDS011;1445;52.600;13.328;2023-07-20T11:34:11;0.20;;;0.20;;
2874;SDS011;1445;52.600;13.328;2023-07-20T11:36:39;0.20;;;0.20;;
2874;SDS011;1445;52.600;13.328;2023-07-20T11:39:09;0.40;;;0.40;;
2874;SDS011;1445;52.600;13.328;2023-07-20T11:41:35;0.32;;;0.32;;
2874;SDS011;1445;52.600;13.328;2023-07-20T11:44:01;0.20;;;0.20;;
2874;SDS011;1445;52.600;13.328;2023-07-20T11:46:27;3.45;;;0.65;;
2874;SDS011;1445;52.600;13.328;2023-07-20T11:48:58;0.20;;;0.20;;
2874;SDS011;1445;52.600;13.328;2023-07-20T11:51:27;0.40;;;0.40;;
2874;SDS011;1445;52.600;13.328;2023-07-20T11:53:53;0.30;;;0.30;;
2874;SDS011;1445;52.600;13.328;2023-07-20T11:56:19;1.05;;;0.32;;
2874;SDS011;1445;52.600;13.328;2023-07-20T11:58:45;0.55;;;0.55;;
2874;SDS011;1445;52.600;13.328;2023-07-20T12:01:14;0.40;;;0.40;;
2874;SDS011;1445;52.600;13.328;2023-07-20T12:03:41;0.40;;;0.40;;
2874;SDS011;1445;52.600;13.328;2023-07-20T12:06:08;0.55;;;0.50;;
2874;SDS011;1445;52.600;13.328;2023-07-20T12:08:34;0.52;;;0.52;;
2874;SDS011;1445;52.600;13.328;2023-07-20T12:10:59;0.22;;;0.22;;
2874;SDS011;1445;52.600;13.328;2023-07-20T12:13:38;0.30;;;0.30;;
2874;SDS011;1445;52.600;13.328;2023-07-20T12:16:10;1.75;;;0.68;;
2874;SDS011;1445;52.600;13.328;2023-07-20T12:18:39;0.28;;;0.28;;
2874;SDS011;1445;52.600;13.328;2023-07-20T12:21:08;0.50;;;0.50;;
2874;SDS011;1445;52.600;13.328;2023-07-20T12:23:35;0.38;;;0.38;;
2874;SDS011;1445;52.600;13.328;2023-07-20T12:26:02;0.20;;;0.20;;
2874;SDS011;1445;52.600;13.328;2023-07-20T12:28:28;0.30;;;0.30;;
2874;SDS011;1445;52.600;13.328;2023-07-20T12:30:55;0.20;;;0.20;;
2874;SDS011;1445;52.600;13.328;2023-07-20T12:33:23;0.22;;;0.22;;
2874;SDS011;1445;52.600;13.328;2023-07-20T12:35:49;0.20;;;0.20;;
2874;SDS011;1445;52.600;13.328;2023-07-20T12:38:15;0.30;;;0.30;;
2874;SDS011;1445;52.600;13.328;2023-07-20T12:40:41;0.22;;;0.22;;
2874;SDS011;1445;52.600;13.328;2023-07-20T12:43:07;0.28;;;0.28;;
2874;SDS011;1445;52.600;13.328;2023-07-20T12:45:32;1.25;;;0.47;;
2874;SDS011;1445;52.600;13.328;2023-07-20T12:47:58;0.30;;;0.30;;
2874;SDS011;1445;52.600;13.328;2023-07-20T12:50:24;0.20;;;0.20;;
2874;SDS011;1445;52.600;13.328;2023-07-20T12:52:49;0.20;;;0.20;;
2874;SDS011;1445;52.600;13.328;2023-07-20T12:55:15;0.28;;;0.20;;
2874;SDS011;1445;52.600;13.328;2023-07-20T12:57:40;0.20;;;0.20;;
2874;SDS011;1445;52.600;13.328;2023-07-20T13:00:06;0.20;;;0.20;;
2874;SDS011;1445;52.600;13.328;2023-07-20T13:02:34;0.38;;;0.38;;
2874;SDS011;1445;52.600;13.328;2023-07-20T13:05:00;0.30;;;0.30;;
2874;SDS011;1445;52.600;13.328;2023-07-20T13:07:32;0.30;;;0.30;;
2874;SDS011;1445;52.600;13.328;2023-07-20T13:10:00;0.20;;;0.20;;
2874;SDS011;1445;52.600;13.328;2023-07-20T13:12:26;0.28;;;0.28;;
2874;SDS011;1445;52.600;13.328;2023-07-20T13:14:54;0.10;;;0.10;;
2874;SDS011;1445;52.600;13.328;2023-07-20T13:17:20;0.20;;;0.20;;
2874;SDS011;1445;52.600;13.328;2023-07-20T13:19:46;0.20;;;0.20;;
2874;SDS011;1445;52.600;13.328;2023-07-20T13:22:11;0.40;;;0.30;;
2874;SDS011;1445;52.600;13.328;2023-07-20T13:24:36;0.20;;;0.20;;
2874;SDS011;1445;52.600;13.328;2023-07-20T13:27:02;3.70;;;0.28;;
2874;SDS011;1445;52.600;13.328;2023-07-20T13:29:28;0.10;;;0.10;;
2874;SDS011;1445;52.600;13.328;2023-07-20T13:31:53;0.17;;;0.17;;
2874;SDS011;1445;52.600;13.328;2023-07-20T13:34:18;0.15;;;0.15;;
2874;SDS011;1445;52.600;13.328;2023-07-20T13:36:44;0.17;;;0.17;;
2874;SDS011;1445;52.600;13.328;2023-07-20T13:39:09;0.10;;;0.10;;
2874;SDS011;1445;52.600;13.328;2023-07-20T13:41:35;0.30;;;0.30;;
2874;SDS011;1445;52.600;13.328;2023-07-20T13:44:00;0.10;;;0.10;;
2874;SDS011;1445;52.600;13.328;2023-07-20T13:46:25;0.28;;;0.22;;
2874;SDS011;1445;52.600;13.328;2023-07-20T13:48:51;0.28;;;0.28;;
2874;SDS011;1445;52.600;13.328;2023-07-20T13:51:16;0.10;;;0.10;;
2874;SDS011;1445;52.600;13.328;2023-07-20T13:53:42;0.10;;;0.10;;
2874;SDS011;1445;52.600;13.328;2023-07-20T13:56:07;0.47;;;0.47;;
2874;SDS011;1445;52.600;13.328;2023-07-20T13:58:33;0.20;;;0.20;;
2874;SDS011;1445;52.600;13.328;2023-07-20T14:00:58;0.25;;;0.17;;
2874;SDS011;1445;52.600;13.328;2023-07-20T14:03:24;0.35;;;0.35;;
2874;SDS011;1445;52.600;13.328;2023-07-20T14:05:50;0.30;;;0.30;;
2874;SDS011;1445;52.600;13.328;2023-07-20T14:08:15;0.10;;;0.10;;
2874;SDS011;1445;52.600;13.328;2023-07-20T14:10:41;1.55;;;0.40;;
2874;SDS011;1445;52.600;13.328;2023-07-20T14:13:06;0.30;;;0.30;;
2874;SDS011;1445;52.600;13.328;2023-07-20T14:15:32;0.28;;;0.28;;
2874;SDS011;1445;52.600;13.328;2023-07-20T14:17:59;0.13;;;0.13;;
2874;SDS011;1445;52.600;13.328;2023-07-20T14:20:25;0.10;;;0.10;;
2874;SDS011;1445;52.600;13.328;2023-07-20T14:22:50;0.25;;;0.25;;
2874;SDS011;1445;52.600;13.328;2023-07-20T14:25:15;0.20;;;0.20;;
2874;SDS011;1445;52.600;13.328;2023-07-20T14:27:41;0.20;;;0.20;;
2874;SDS011;1445;52.600;13.328;2023-07-20T14:30:06;0.20;;;0.20;;
2874;SDS011;1445;52.600;13.328;2023-07-20T14:32:33;4.85;;;0.52;;
2874;SDS011;1445;52.600;13.328;2023-07-20T14:34:59;0.30;;;0.30;;
2874;SDS011;1445;52.600;13.328;2023-07-20T14:37:24;0.20;;;0.20;;
2874;SDS011;1445;52.600;13.328;2023-07-20T14:39:50;9.27;;;0.80;;
2874;SDS011;1445;52.600;13.328;2023-07-20T14:42:15;0.30;;;0.17;;
2874;SDS011;1445;52.600;13.328;2023-07-20T14:44:40;1.17;;;0.45;;
2874;SDS011;1445;52.600;13.328;2023-07-20T14:47:06;0.10;;;0.10;;
2874;SDS011;1445;52.600;13.328;2023-07-20T14:49:31;0.20;;;0.20;;
2874;SDS011;1445;52.600;13.328;2023-07-20T14:51:57;0.25;;;0.20;;
2874;SDS011;1445;52.600;13.328;2023-07-20T14:54:22;0.30;;;0.30;;
2874;SDS011;1445;52.600;13.328;2023-07-20T14:56:51;0.25;;;0.25;;
2874;SDS011;1445;52.600;13.328;2023-07-20T15:01:46;0.20;;;0.20;;
2874;SDS011;1445;52.600;13.328;2023-07-20T15:04:12;0.30;;;0.20;;
2874;SDS011;1445;52.600;13.328;2023-07-20T15:06:39;0.30;;;0.30;;
2874;SDS011;1445;52.600;13.328;2023-07-20T15:09:04;0.30;;;0.30;;
2874;SDS011;1445;52.600;13.328;2023-07-20T15:11:30;0.40;;;0.40;;
2874;SDS011;1445;52.600;13.328;2023-07-20T15:13:55;0.40;;;0.40;;
2874;SDS011;1445;52.600;13.328;2023-07-20T15:16:21;0.25;;;0.25;;
2874;SDS011;1445;52.600;13.328;2023-07-20T15:18:47;0.35;;;0.35;;